sensor_id;sensor_type;location;lat;lon;timestamp;pressure;altitude;pressure_sealevel;temperature;humidity
43683;BME280;29285;52.128;21.060;2023-04-20T00:00:49;100645.91;;;11.46;100.00
43683;BME280;29285;52.128;21.060;2023-04-20T00:05:52;100643.23;;;11.39;100.00
43683;BME280;29285;52.128;21.060;2023-04-20T00:10:53;100639.14;;;11.33;100.00
43683;BME280;29285;52.128;21.060;2023-04-20T00:15:54;100641.97;;;11.30;100.00
43683;BME280;29285;52.128;21.060;2023-04-20T00:20:56;100637.86;;;11.26;100.00
43683;BME280;29285;52.128;21.060;2023-04-20T00:25:57;100635.66;;;11.21;100.00
43683;BME280;29285;52.128;21.060;2023-04-20T00:30:58;100633.24;;;11.20;100.00
43683;BME280;29285;52.128;21.060;2023-04-20T00:35:59;100636.77;;;11.17;100.00
43683;BME280;29285;52.128;21.060;2023-04-20T00:41:00;100636.98;;;11.14;100.00
43683;BME280;29285;52.128;21.060;2023-04-20T00:46:02;100638.05;;;11.12;100.00
43683;BME280;29285;52.128;21.060;2023-04-20T00:51:04;100640.98;;;11.12;100.00
43683;BME280;29285;52.128;21.060;2023-04-20T00:56:05;100644.15;;;11.10;100.00
43683;BME280;29285;52.128;21.060;2023-04-20T01:01:06;100646.42;;;11.09;100.00
43683;BME280;29285;52.128;21.060;2023-04-20T01:06:08;100648.66;;;11.10;100.00
43683;BME280;29285;52.128;21.060;2023-04-20T01:11:10;100650.40;;;11.10;100.00
43683;BME280;29285;52.128;21.060;2023-04-20T01:16:12;100651.40;;;11.12;100.00
43683;BME280;29285;52.128;21.060;2023-04-20T01:21:14;100643.92;;;11.15;100.00
43683;BME280;29285;52.128;21.060;2023-04-20T01:26:17;100642.35;;;11.15;100.00
43683;BME280;29285;52.128;21.060;2023-04-20T01:31:19;100644.22;;;11.18;100.00
43683;BME280;29285;52.128;21.060;2023-04-20T01:36:20;100637.44;;;11.19;100.00
43683;BME280;29285;52.128;21.060;2023-04-20T01:41:21;100633.25;;;11.20;100.00
43683;BME280;29285;52.128;21.060;2023-04-20T01:46:22;100634.60;;;11.22;100.00
43683;BME280;29285;52.128;21.060;2023-04-20T01:51:23;100635.81;;;11.22;100.00
43683;BME280;29285;52.128;21.060;2023-04-20T01:56:24;100631.84;;;11.21;100.00
43683;BME280;29285;52.128;21.060;2023-04-20T02:01:26;100632.56;;;11.19;100.00
43683;BME280;29285;52.128;21.060;2023-04-20T02:06:27;100636.89;;;11.19;100.00
43683;BME280;29285;52.128;21.060;2023-04-20T02:11:28;100640.55;;;11.20;100.00
43683;BME280;29285;52.128;21.060;2023-04-20T02:16:29;100640.55;;;11.20;100.00
43683;BME280;29285;52.128;21.060;2023-04-20T02:21:31;100640.87;;;11.21;100.00
43683;BME280;29285;52.128;21.060;2023-04-20T02:26:32;100642.48;;;11.17;100.00
43683;BME280;29285;52.128;21.060;2023-04-20T02:31:33;100644.59;;;11.16;100.00
43683;BME280;29285;52.128;21.060;2023-04-20T02:36:34;100637.31;;;11.14;100.00
43683;BME280;29285;52.128;21.060;2023-04-20T02:41:35;100642.41;;;11.10;100.00
43683;BME280;29285;52.128;21.060;2023-04-20T02:46:36;100637.72;;;11.10;100.00
43683;BME280;29285;52.128;21.060;2023-04-20T02:51:37;100638.95;;;11.08;100.00
43683;BME280;29285;52.128;21.060;2023-04-20T02:56:38;100641.23;;;11.08;100.00
43683;BME280;29285;52.128;21.060;2023-04-20T03:01:39;100645.36;;;11.11;100.00
43683;BME280;29285;52.128;21.060;2023-04-20T03:06:40;100646.04;;;11.12;100.00
43683;BME280;29285;52.128;21.060;2023-04-20T03:11:43;100648.78;;;11.15;100.00
43683;BME280;29285;52.128;21.060;2023-04-20T03:16:44;100645.27;;;11.17;100.00
43683;BME280;29285;52.128;21.060;2023-04-20T03:21:46;100645.10;;;11.17;100.00
43683;BME280;29285;52.128;21.060;2023-04-20T03:26:47;100652.25;;;11.14;100.00
43683;BME280;29285;52.128;21.060;2023-04-20T03:31:48;100646.86;;;11.15;100.00
43683;BME280;29285;52.128;21.060;2023-04-20T03:36:49;100651.55;;;11.14;100.00
43683;BME280;29285;52.128;21.060;2023-04-20T03:41:50;100651.06;;;11.12;100.00
43683;BME280;29285;52.128;21.060;2023-04-20T03:46:51;100651.80;;;11.10;100.00
43683;BME280;29285;52.128;21.060;2023-04-20T03:51:52;100657.41;;;11.05;100.00
43683;BME280;29285;52.128;21.060;2023-04-20T03:56:54;100659.04;;;10.99;100.00
43683;BME280;29285;52.128;21.060;2023-04-20T04:01:55;100664.10;;;10.97;100.00
43683;BME280;29285;52.128;21.060;2023-04-20T04:06:56;100670.36;;;10.95;100.00
43683;BME280;29285;52.128;21.060;2023-04-20T04:11:57;100668.84;;;10.92;100.00
43683;BME280;29285;52.128;21.060;2023-04-20T04:16:58;100670.91;;;10.93;100.00
43683;BME280;29285;52.128;21.060;2023-04-20T04:21:59;100679.20;;;10.97;100.00
43683;BME280;29285;52.128;21.060;2023-04-20T04:27:01;100681.11;;;10.97;100.00
43683;BME280;29285;52.128;21.060;2023-04-20T04:32:05;100677.29;;;10.97;100.00
43683;BME280;29285;52.128;21.060;2023-04-20T04:37:06;100680.73;;;11.01;100.00
43683;BME280;29285;52.128;21.060;2023-04-20T04:42:07;100684.48;;;11.06;100.00
43683;BME280;29285;52.128;21.060;2023-04-20T04:47:08;100686.16;;;11.11;100.00
43683;BME280;29285;52.128;21.060;2023-04-20T04:52:11;100686.98;;;11.15;100.00
43683;BME280;29285;52.128;21.060;2023-04-20T04:57:13;100690.77;;;11.17;100.00
43683;BME280;29285;52.128;21.060;2023-04-20T05:02:14;100702.15;;;11.23;100.00
43683;BME280;29285;52.128;21.060;2023-04-20T05:07:15;100703.10;;;11.30;100.00
43683;BME280;29285;52.128;21.060;2023-04-20T05:12:17;100701.48;;;11.33;100.00
43683;BME280;29285;52.128;21.060;2023-04-20T05:17:18;100706.83;;;11.37;100.00
43683;BME280;29285;52.128;21.060;2023-04-20T05:22:20;100707.61;;;11.43;100.00
43683;BME280;29285;52.128;21.060;2023-04-20T05:27:21;100712.44;;;11.45;100.00
43683;BME280;29285;52.128;21.060;2023-04-20T05:32:22;100718.77;;;11.53;100.00
43683;BME280;29285;52.128;21.060;2023-04-20T05:37:23;100721.08;;;11.62;100.00
43683;BME280;29285;52.128;21.060;2023-04-20T05:42:24;100725.69;;;11.69;100.00
43683;BME280;29285;52.128;21.060;2023-04-20T05:47:25;100733.63;;;11.72;100.00
43683;BME280;29285;52.128;21.060;2023-04-20T05:52:27;100728.92;;;11.73;100.00
43683;BME280;29285;52.128;21.060;2023-04-20T05:57:28;100732.38;;;11.74;100.00
43683;BME280;29285;52.128;21.060;2023-04-20T06:02:30;100734.11;;;11.74;100.00
43683;BME280;29285;52.128;21.060;2023-04-20T06:07:31;100738.87;;;11.82;100.00
43683;BME280;29285;52.128;21.060;2023-04-20T06:12:33;100747.94;;;11.92;100.00
43683;BME280;29285;52.128;21.060;2023-04-20T06:17:35;100749.16;;;12.05;100.00
43683;BME280;29285;52.128;21.060;2023-04-20T06:22:41;100747.73;;;12.19;100.00
43683;BME280;29285;52.128;21.060;2023-04-20T06:27:44;100748.55;;;12.33;100.00
43683;BME280;29285;52.128;21.060;2023-04-20T06:32:45;100749.00;;;12.46;100.00
43683;BME280;29285;52.128;21.060;2023-04-20T06:37:46;100751.04;;;12.61;100.00
43683;BME280;29285;52.128;21.060;2023-04-20T06:42:47;100750.06;;;12.76;100.00
43683;BME280;29285;52.128;21.060;2023-04-20T06:47:48;100751.27;;;12.95;100.00
43683;BME280;29285;52.128;21.060;2023-04-20T06:52:49;100750.08;;;13.12;100.00
43683;BME280;29285;52.128;21.060;2023-04-20T06:57:51;100757.02;;;13.31;100.00
43683;BME280;29285;52.128;21.060;2023-04-20T07:02:52;100753.77;;;13.45;100.00
43683;BME280;29285;52.128;21.060;2023-04-20T07:07:54;100755.38;;;13.53;100.00
43683;BME280;29285;52.128;21.060;2023-04-20T07:12:55;100756.61;;;13.60;100.00
43683;BME280;29285;52.128;21.060;2023-04-20T07:17:56;100758.77;;;13.73;100.00
43683;BME280;29285;52.128;21.060;2023-04-20T07:22:57;100760.73;;;13.86;100.00
43683;BME280;29285;52.128;21.060;2023-04-20T07:27:58;100760.27;;;13.99;100.00
43683;BME280;29285;52.128;21.060;2023-04-20T07:32:59;100762.95;;;14.11;100.00
43683;BME280;29285;52.128;21.060;2023-04-20T07:38:01;100762.02;;;14.28;100.00
43683;BME280;29285;52.128;21.060;2023-04-20T07:43:02;100763.89;;;14.51;100.00
43683;BME280;29285;52.128;21.060;2023-04-20T07:48:03;100760.69;;;14.74;100.00
43683;BME280;29285;52.128;21.060;2023-04-20T07:53:05;100760.03;;;14.93;100.00
43683;BME280;29285;52.128;21.060;2023-04-20T07:58:07;100759.86;;;15.12;100.00
43683;BME280;29285;52.128;21.060;2023-04-20T08:03:08;100759.59;;;15.28;100.00
43683;BME280;29285;52.128;21.060;2023-04-20T08:08:09;100761.05;;;15.44;100.00
43683;BME280;29285;52.128;21.060;2023-04-20T08:13:10;100753.71;;;15.61;100.00
43683;BME280;29285;52.128;21.060;2023-04-20T08:18:11;100755.30;;;15.78;100.00
43683;BME280;29285;52.128;21.060;2023-04-20T08:23:12;100756.73;;;15.95;100.00
43683;BME280;29285;52.128;21.060;2023-04-20T08:28:14;100757.68;;;15.98;100.00
43683;BME280;29285;52.128;21.060;2023-04-20T08:33:16;100759.46;;;16.09;100.00
43683;BME280;29285;52.128;21.060;2023-04-20T08:38:17;100750.63;;;16.22;100.00
43683;BME280;29285;52.128;21.060;2023-04-20T08:43:19;100748.55;;;16.37;100.00
43683;BME280;29285;52.128;21.060;2023-04-20T08:48:20;100749.40;;;16.48;100.00
43683;BME280;29285;52.128;21.060;2023-04-20T08:53:22;100752.38;;;16.63;100.00
43683;BME280;29285;52.128;21.060;2023-04-20T08:58:24;100751.88;;;16.78;100.00
43683;BME280;29285;52.128;21.060;2023-04-20T09:03:33;100752.55;;;16.89;100.00
43683;BME280;29285;52.128;21.060;2023-04-20T09:08:39;100747.02;;;17.01;100.00
43683;BME280;29285;52.128;21.060;2023-04-20T09:13:40;100746.42;;;17.14;100.00
43683;BME280;29285;52.128;21.060;2023-04-20T09:18:51;100749.79;;;17.27;100.00
43683;BME280;29285;52.128;21.060;2023-04-20T09:24:04;100748.42;;;17.40;100.00
43683;BME280;29285;52.128;21.060;2023-04-20T09:29:21;100748.61;;;17.49;100.00
43683;BME280;29285;52.128;21.060;2023-04-20T09:34:24;100741.55;;;17.60;100.00
43683;BME280;29285;52.128;21.060;2023-04-20T09:39:25;100742.31;;;17.72;100.00
43683;BME280;29285;52.128;21.060;2023-04-20T09:44:27;100743.05;;;17.71;99.45
43683;BME280;29285;52.128;21.060;2023-04-20T09:49:29;100752.16;;;17.62;98.13
43683;BME280;29285;52.128;21.060;2023-04-20T09:54:30;100751.36;;;17.59;97.20
43683;BME280;29285;52.128;21.060;2023-04-20T09:59:32;100743.95;;;17.66;96.30
43683;BME280;29285;52.128;21.060;2023-04-20T10:04:33;100741.84;;;17.75;95.54
43683;BME280;29285;52.128;21.060;2023-04-20T10:09:34;100736.41;;;17.79;94.63
43683;BME280;29285;52.128;21.060;2023-04-20T10:14:37;100732.84;;;17.76;93.42
43683;BME280;29285;52.128;21.060;2023-04-20T10:19:43;100734.80;;;17.93;92.69
43683;BME280;29285;52.128;21.060;2023-04-20T10:24:45;100727.02;;;18.17;92.00
43683;BME280;29285;52.128;21.060;2023-04-20T10:29:46;100728.46;;;18.37;91.36
43683;BME280;29285;52.128;21.060;2023-04-20T10:34:59;100726.90;;;18.32;90.04
43683;BME280;29285;52.128;21.060;2023-04-20T10:40:01;100720.61;;;18.40;88.98
43683;BME280;29285;52.128;21.060;2023-04-20T10:45:04;100720.82;;;18.52;88.10
43683;BME280;29285;52.128;21.060;2023-04-20T10:55:24;100714.64;;;18.64;85.92
43683;BME280;29285;52.128;21.060;2023-04-20T11:00:27;100712.68;;;18.93;85.18
43683;BME280;29285;52.128;21.060;2023-04-20T11:05:28;100713.81;;;18.96;83.92
43683;BME280;29285;52.128;21.060;2023-04-20T11:10:38;100713.27;;;19.16;82.93
43683;BME280;29285;52.128;21.060;2023-04-20T11:15:40;100705.08;;;19.56;82.45
43683;BME280;29285;52.128;21.060;2023-04-20T11:20:52;100700.95;;;19.94;81.83
43683;BME280;29285;52.128;21.060;2023-04-20T11:25:55;100703.47;;;20.15;80.78
43683;BME280;29285;52.128;21.060;2023-04-20T11:30:56;100703.33;;;20.07;78.98
43683;BME280;29285;52.128;21.060;2023-04-20T11:35:59;100703.66;;;20.43;78.29
43683;BME280;29285;52.128;21.060;2023-04-20T11:41:00;100701.23;;;20.73;77.62
43683;BME280;29285;52.128;21.060;2023-04-20T11:46:14;100699.80;;;20.67;76.03
43683;BME280;29285;52.128;21.060;2023-04-20T11:51:16;100692.64;;;20.68;74.76
43683;BME280;29285;52.128;21.060;2023-04-20T11:56:17;100692.73;;;20.88;73.97
43683;BME280;29285;52.128;21.060;2023-04-20T12:01:18;100697.75;;;20.69;72.53
43683;BME280;29285;52.128;21.060;2023-04-20T12:06:20;100695.73;;;20.29;70.44
43683;BME280;29285;52.128;21.060;2023-04-20T12:11:21;100689.91;;;20.22;69.46
43683;BME280;29285;52.128;21.060;2023-04-20T12:16:22;100687.29;;;20.46;69.01
43683;BME280;29285;52.128;21.060;2023-04-20T12:21:26;100677.98;;;20.93;68.85
43683;BME280;29285;52.128;21.060;2023-04-20T12:26:28;100668.38;;;21.40;68.54
43683;BME280;29285;52.128;21.060;2023-04-20T12:31:29;100671.75;;;21.74;67.68
43683;BME280;29285;52.128;21.060;2023-04-20T12:36:30;100673.90;;;21.45;65.51
43683;BME280;29285;52.128;21.060;2023-04-20T12:41:32;100674.52;;;21.01;63.62
43683;BME280;29285;52.128;21.060;2023-04-20T12:46:34;100672.66;;;20.53;61.93
43683;BME280;29285;52.128;21.060;2023-04-20T12:51:35;100664.85;;;20.16;60.71
43683;BME280;29285;52.128;21.060;2023-04-20T12:56:36;100657.72;;;19.93;59.90
43683;BME280;29285;52.128;21.060;2023-04-20T13:01:37;100653.35;;;19.96;59.65
43683;BME280;29285;52.128;21.060;2023-04-20T13:06:38;100655.30;;;20.03;59.45
43683;BME280;29285;52.128;21.060;2023-04-20T13:11:39;100648.75;;;19.89;58.79
43683;BME280;29285;52.128;21.060;2023-04-20T13:16:41;100647.70;;;19.71;58.00
43683;BME280;29285;52.128;21.060;2023-04-20T13:21:42;100644.66;;;19.57;57.38
43683;BME280;29285;52.128;21.060;2023-04-20T13:26:43;100636.80;;;19.71;57.19
43683;BME280;29285;52.128;21.060;2023-04-20T13:31:44;100633.24;;;20.58;58.23
43683;BME280;29285;52.128;21.060;2023-04-20T13:36:47;100636.09;;;20.75;57.69
43683;BME280;29285;52.128;21.060;2023-04-20T13:41:48;100642.27;;;20.48;56.13
43683;BME280;29285;52.128;21.060;2023-04-20T13:46:50;100635.52;;;20.18;54.89
43683;BME280;29285;52.128;21.060;2023-04-20T13:51:51;100637.92;;;19.91;53.93
43683;BME280;29285;52.128;21.060;2023-04-20T13:56:52;100633.23;;;19.82;53.49
43683;BME280;29285;52.128;21.060;2023-04-20T14:01:53;100632.20;;;20.24;53.83
43683;BME280;29285;52.128;21.060;2023-04-20T14:06:54;100617.66;;;20.93;54.34
43683;BME280;29285;52.128;21.060;2023-04-20T14:11:55;100616.50;;;21.68;54.74
43683;BME280;29285;52.128;21.060;2023-04-20T14:16:57;100622.45;;;21.72;53.67
43683;BME280;29285;52.128;21.060;2023-04-20T14:21:58;100628.30;;;21.43;52.07
43683;BME280;29285;52.128;21.060;2023-04-20T14:26:59;100627.97;;;21.17;51.01
43683;BME280;29285;52.128;21.060;2023-04-20T14:32:01;100629.17;;;21.09;50.29
43683;BME280;29285;52.128;21.060;2023-04-20T14:37:03;100630.20;;;20.99;49.75
43683;BME280;29285;52.128;21.060;2023-04-20T14:42:04;100625.89;;;20.91;49.23
43683;BME280;29285;52.128;21.060;2023-04-20T14:47:05;100625.70;;;20.81;48.76
43683;BME280;29285;52.128;21.060;2023-04-20T14:52:07;100625.99;;;20.89;48.52
43683;BME280;29285;52.128;21.060;2023-04-20T14:57:08;100625.73;;;20.88;48.13
43683;BME280;29285;52.128;21.060;2023-04-20T15:02:10;100624.55;;;20.69;47.62
43683;BME280;29285;52.128;21.060;2023-04-20T15:07:11;100630.01;;;20.57;47.61
43683;BME280;29285;52.128;21.060;2023-04-20T15:12:12;100632.40;;;20.61;49.34
43683;BME280;29285;52.128;21.060;2023-04-20T15:17:13;100633.26;;;20.59;50.53
43683;BME280;29285;52.128;21.060;2023-04-20T15:22:14;100631.51;;;20.55;51.06
43683;BME280;29285;52.128;21.060;2023-04-20T15:27:15;100628.60;;;20.49;51.24
43683;BME280;29285;52.128;21.060;2023-04-20T15:32:17;100625.69;;;20.55;51.47
43683;BME280;29285;52.128;21.060;2023-04-20T15:37:18;100623.98;;;20.70;51.77
43683;BME280;29285;52.128;21.060;2023-04-20T15:42:19;100617.87;;;21.62;52.80
43683;BME280;29285;52.128;21.060;2023-04-20T15:47:20;100619.93;;;22.21;53.19
43683;BME280;29285;52.128;21.060;2023-04-20T15:52:21;100621.06;;;21.96;51.90
43683;BME280;29285;52.128;21.060;2023-04-20T15:57:23;100620.83;;;21.76;51.31
43683;BME280;29285;52.128;21.060;2023-04-20T16:02:24;100619.85;;;21.62;51.23
43683;BME280;29285;52.128;21.060;2023-04-20T16:07:25;100617.44;;;21.48;50.97
43683;BME280;29285;52.128;21.060;2023-04-20T16:12:26;100618.58;;;21.34;50.79
43683;BME280;29285;52.128;21.060;2023-04-20T16:17:27;100618.14;;;21.16;50.41
43683;BME280;29285;52.128;21.060;2023-04-20T16:22:28;100624.15;;;20.94;49.90
43683;BME280;29285;52.128;21.060;2023-04-20T16:27:30;100629.52;;;20.76;49.48
43683;BME280;29285;52.128;21.060;2023-04-20T16:32:32;100633.75;;;20.59;49.17
43683;BME280;29285;52.128;21.060;2023-04-20T16:37:34;100636.95;;;20.38;48.68
43683;BME280;29285;52.128;21.060;2023-04-20T16:42:35;100639.31;;;20.13;48.03
43683;BME280;29285;52.128;21.060;2023-04-20T16:47:37;100639.02;;;20.04;47.95
43683;BME280;29285;52.128;21.060;2023-04-20T16:52:38;100648.63;;;19.88;47.63
43683;BME280;29285;52.128;21.060;2023-04-20T16:57:39;100645.83;;;19.66;47.05
43683;BME280;29285;52.128;21.060;2023-04-20T17:02:42;100654.86;;;19.57;46.90
43683;BME280;29285;52.128;21.060;2023-04-20T17:07:44;100653.27;;;19.47;46.81
43683;BME280;29285;52.128;21.060;2023-04-20T17:12:45;100658.58;;;19.35;46.63
43683;BME280;29285;52.128;21.060;2023-04-20T17:17:47;100660.95;;;19.41;46.93
43683;BME280;29285;52.128;21.060;2023-04-20T17:22:48;100664.38;;;19.53;47.69
43683;BME280;29285;52.128;21.060;2023-04-20T17:27:49;100665.15;;;19.41;47.61
43683;BME280;29285;52.128;21.060;2023-04-20T17:32:51;100671.05;;;19.08;46.75
43683;BME280;29285;52.128;21.060;2023-04-20T17:37:52;100672.37;;;18.75;46.04
43683;BME280;29285;52.128;21.060;2023-04-20T17:42:53;100678.11;;;18.44;45.61
43683;BME280;29285;52.128;21.060;2023-04-20T17:47:54;100680.94;;;18.19;45.38
43683;BME280;29285;52.128;21.060;2023-04-20T17:52:56;100682.55;;;17.96;45.21
43683;BME280;29285;52.128;21.060;2023-04-20T17:57:56;100681.67;;;17.79;45.15
43683;BME280;29285;52.128;21.060;2023-04-20T18:02:58;100681.13;;;17.62;45.09
43683;BME280;29285;52.128;21.060;2023-04-20T18:08:00;100686.13;;;17.46;45.00
43683;BME280;29285;52.128;21.060;2023-04-20T18:13:01;100689.27;;;17.32;45.02
43683;BME280;29285;52.128;21.060;2023-04-20T18:18:02;100694.02;;;17.19;45.04
43683;BME280;29285;52.128;21.060;2023-04-20T18:23:03;100696.89;;;17.07;45.12
43683;BME280;29285;52.128;21.060;2023-04-20T18:28:04;100700.27;;;16.96;45.19
43683;BME280;29285;52.128;21.060;2023-04-20T18:33:05;100704.30;;;16.86;45.31
43683;BME280;29285;52.128;21.060;2023-04-20T18:38:06;100702.26;;;16.79;45.45
43683;BME280;29285;52.128;21.060;2023-04-20T18:43:08;100703.69;;;16.69;45.46
43683;BME280;29285;52.128;21.060;2023-04-20T18:48:09;100703.83;;;16.60;45.59
43683;BME280;29285;52.128;21.060;2023-04-20T18:53:10;100713.93;;;16.51;45.70
43683;BME280;29285;52.128;21.060;2023-04-20T18:58:11;100715.27;;;16.43;45.78
43683;BME280;29285;52.128;21.060;2023-04-20T19:03:12;100716.75;;;16.35;45.97
43683;BME280;29285;52.128;21.060;2023-04-20T19:08:13;100717.03;;;16.27;46.00
43683;BME280;29285;52.128;21.060;2023-04-20T19:13:14;100718.84;;;16.20;46.12
43683;BME280;29285;52.128;21.060;2023-04-20T19:18:17;100719.39;;;16.14;46.25
43683;BME280;29285;52.128;21.060;2023-04-20T19:23:18;100722.73;;;16.08;46.38
43683;BME280;29285;52.128;21.060;2023-04-20T19:28:21;100721.90;;;16.01;46.50
43683;BME280;29285;52.128;21.060;2023-04-20T19:33:22;100727.70;;;15.95;46.61
43683;BME280;29285;52.128;21.060;2023-04-20T19:38:23;100724.02;;;15.88;46.69
43683;BME280;29285;52.128;21.060;2023-04-20T19:43:26;100726.80;;;15.84;46.84
43683;BME280;29285;52.128;21.060;2023-04-20T19:48:28;100728.40;;;15.77;46.94
43683;BME280;29285;52.128;21.060;2023-04-20T19:53:29;100730.88;;;15.70;47.05
43683;BME280;29285;52.128;21.060;2023-04-20T19:58:30;100725.66;;;15.64;47.15
43683;BME280;29285;52.128;21.060;2023-04-20T20:03:31;100731.77;;;15.58;47.33
43683;BME280;29285;52.128;21.060;2023-04-20T20:08:32;100734.39;;;15.53;47.42
43683;BME280;29285;52.128;21.060;2023-04-20T20:13:33;100733.15;;;15.47;47.52
43683;BME280;29285;52.128;21.060;2023-04-20T20:18:35;100737.16;;;15.41;47.65
43683;BME280;29285;52.128;21.060;2023-04-20T20:23:36;100734.08;;;15.34;47.73
43683;BME280;29285;52.128;21.060;2023-04-20T20:28:37;100735.73;;;15.25;47.76
43683;BME280;29285;52.128;21.060;2023-04-20T20:33:38;100736.14;;;15.16;47.85
43683;BME280;29285;52.128;21.060;2023-04-20T20:38:40;100737.02;;;15.10;48.02
43683;BME280;29285;52.128;21.060;2023-04-20T20:43:43;100735.05;;;15.06;48.22
43683;BME280;29285;52.128;21.060;2023-04-20T20:48:45;100736.98;;;15.11;48.67
43683;BME280;29285;52.128;21.060;2023-04-20T20:53:47;100736.63;;;15.24;49.29
43683;BME280;29285;52.128;21.060;2023-04-20T20:58:48;100738.20;;;15.18;49.50
43683;BME280;29285;52.128;21.060;2023-04-20T21:03:49;100741.65;;;15.13;49.61
43683;BME280;29285;52.128;21.060;2023-04-20T21:08:50;100740.80;;;15.12;49.82
43683;BME280;29285;52.128;21.060;2023-04-20T21:13:51;100741.34;;;15.12;50.01
43683;BME280;29285;52.128;21.060;2023-04-20T21:18:52;100741.54;;;15.17;50.47
43683;BME280;29285;52.128;21.060;2023-04-20T21:23:54;100736.62;;;15.12;50.62
43683;BME280;29285;52.128;21.060;2023-04-20T21:28:55;100743.92;;;15.07;50.70
43683;BME280;29285;52.128;21.060;2023-04-20T21:33:56;100740.27;;;15.06;51.10
43683;BME280;29285;52.128;21.060;2023-04-20T21:38:57;100737.41;;;15.02;51.38
43683;BME280;29285;52.128;21.060;2023-04-20T21:43:58;100741.50;;;15.00;51.63
43683;BME280;29285;52.128;21.060;2023-04-20T21:49:00;100738.13;;;15.14;52.46
43683;BME280;29285;52.128;21.060;2023-04-20T21:54:02;100736.91;;;15.14;52.90
43683;BME280;29285;52.128;21.060;2023-04-20T21:59:03;100732.50;;;14.97;52.71
43683;BME280;29285;52.128;21.060;2023-04-20T22:04:04;100733.89;;;14.78;52.52
43683;BME280;29285;52.128;21.060;2023-04-20T22:09:05;100737.00;;;14.59;52.35
43683;BME280;29285;52.128;21.060;2023-04-20T22:14:06;100737.60;;;14.42;52.35
43683;BME280;29285;52.128;21.060;2023-04-20T22:19:07;100737.59;;;14.28;52.39
43683;BME280;29285;52.128;21.060;2023-04-20T22:24:08;100742.55;;;14.18;52.62
43683;BME280;29285;52.128;21.060;2023-04-20T22:29:09;100744.50;;;14.09;52.70
43683;BME280;29285;52.128;21.060;2023-04-20T22:34:10;100748.31;;;14.03;53.01
43683;BME280;29285;52.128;21.060;2023-04-20T22:39:11;100751.26;;;13.97;53.13
43683;BME280;29285;52.128;21.060;2023-04-20T22:44:13;100748.10;;;13.89;53.31
43683;BME280;29285;52.128;21.060;2023-04-20T22:49:14;100751.77;;;13.82;53.50
43683;BME280;29285;52.128;21.060;2023-04-20T22:54:15;100754.70;;;13.75;53.77
43683;BME280;29285;52.128;21.060;2023-04-20T22:59:16;100750.90;;;13.66;53.92
43683;BME280;29285;52.128;21.060;2023-04-20T23:04:17;100754.20;;;13.58;53.99
43683;BME280;29285;52.128;21.060;2023-04-20T23:09:19;100750.66;;;13.53;54.29
43683;BME280;29285;52.128;21.060;2023-04-20T23:14:20;100747.50;;;13.45;54.39
43683;BME280;29285;52.128;21.060;2023-04-20T23:19:22;100752.84;;;13.40;54.68
43683;BME280;29285;52.128;21.060;2023-04-20T23:24:25;100748.59;;;13.33;54.86
43683;BME280;29285;52.128;21.060;2023-04-20T23:29:26;100750.31;;;13.27;55.21
43683;BME280;29285;52.128;21.060;2023-04-20T23:34:28;100749.88;;;13.22;55.39
43683;BME280;29285;52.128;21.060;2023-04-20T23:39:34;100748.88;;;13.20;55.61
43683;BME280;29285;52.128;21.060;2023-04-20T23:44:36;100747.90;;;13.17;55.90
43683;BME280;29285;52.128;21.060;2023-04-20T23:49:37;100746.45;;;13.11;56.07
43683;BME280;29285;52.128;21.060;2023-04-20T23:54:38;100742.54;;;13.06;56.35
43683;BME280;29285;52.128;21.060;2023-04-20T23:59:39;100745.95;;;13.00;56.57
